sensor_id;sensor_type;location;lat;lon;timestamp;temperature;humidity
44271;DHT22;29963;44.594;11.368;2022-12-18T00:01:23;8.20;99.90
44271;DHT22;29963;44.594;11.368;2022-12-18T00:03:50;8.20;99.90
44271;DHT22;29963;44.594;11.368;2022-12-18T00:06:16;8.20;99.90
44271;DHT22;29963;44.594;11.368;2022-12-18T00:08:43;8.20;99.90
44271;DHT22;29963;44.594;11.368;2022-12-18T00:11:15;8.20;99.90
44271;DHT22;29963;44.594;11.368;2022-12-18T00:13:41;8.20;99.90
44271;DHT22;29963;44.594;11.368;2022-12-18T00:16:10;8.20;99.90
44271;DHT22;29963;44.594;11.368;2022-12-18T00:18:36;8.30;99.90
44271;DHT22;29963;44.594;11.368;2022-12-18T00:21:05;8.30;99.90
44271;DHT22;29963;44.594;11.368;2022-12-18T00:23:33;8.30;99.90
44271;DHT22;29963;44.594;11.368;2022-12-18T00:26:05;8.30;99.90
44271;DHT22;29963;44.594;11.368;2022-12-18T00:28:31;8.30;99.90
44271;DHT22;29963;44.594;11.368;2022-12-18T00:31:05;8.30;99.90
44271;DHT22;29963;44.594;11.368;2022-12-18T00:33:31;8.20;99.90
44271;DHT22;29963;44.594;11.368;2022-12-18T00:36:03;8.20;99.90
44271;DHT22;29963;44.594;11.368;2022-12-18T00:38:29;8.20;99.90
44271;DHT22;29963;44.594;11.368;2022-12-18T00:40:55;8.20;99.90
44271;DHT22;29963;44.594;11.368;2022-12-18T00:43:21;8.20;99.90
44271;DHT22;29963;44.594;11.368;2022-12-18T00:45:49;8.20;99.90
44271;DHT22;29963;44.594;11.368;2022-12-18T00:48:15;8.10;99.90
44271;DHT22;29963;44.594;11.368;2022-12-18T00:50:40;8.10;99.90
44271;DHT22;29963;44.594;11.368;2022-12-18T00:53:06;8.10;99.90
44271;DHT22;29963;44.594;11.368;2022-12-18T00:55:37;8.10;99.90
44271;DHT22;29963;44.594;11.368;2022-12-18T00:58:04;8.10;99.90
44271;DHT22;29963;44.594;11.368;2022-12-18T01:00:29;8.10;99.90
44271;DHT22;29963;44.594;11.368;2022-12-18T01:02:55;8.00;99.90
44271;DHT22;29963;44.594;11.368;2022-12-18T01:05:21;7.90;99.90
44271;DHT22;29963;44.594;11.368;2022-12-18T01:07:46;7.90;99.90
44271;DHT22;29963;44.594;11.368;2022-12-18T01:10:13;7.90;99.90
44271;DHT22;29963;44.594;11.368;2022-12-18T01:12:39;7.90;99.90
44271;DHT22;29963;44.594;11.368;2022-12-18T01:15:06;7.90;99.90
44271;DHT22;29963;44.594;11.368;2022-12-18T01:17:32;7.90;99.90
44271;DHT22;29963;44.594;11.368;2022-12-18T01:19:58;7.90;99.90
44271;DHT22;29963;44.594;11.368;2022-12-18T01:22:23;7.90;99.90
44271;DHT22;29963;44.594;11.368;2022-12-18T01:24:49;7.90;99.90
44271;DHT22;29963;44.594;11.368;2022-12-18T01:27:15;7.90;99.90
44271;DHT22;29963;44.594;11.368;2022-12-18T01:29:41;7.90;99.90
44271;DHT22;29963;44.594;11.368;2022-12-18T01:32:08;7.80;99.90
44271;DHT22;29963;44.594;11.368;2022-12-18T01:34:36;7.80;99.90
44271;DHT22;29963;44.594;11.368;2022-12-18T01:37:03;7.80;99.90
44271;DHT22;29963;44.594;11.368;2022-12-18T01:39:28;7.80;99.90
44271;DHT22;29963;44.594;11.368;2022-12-18T01:41:54;7.80;99.90
44271;DHT22;29963;44.594;11.368;2022-12-18T01:48:06;7.80;99.90
44271;DHT22;29963;44.594;11.368;2022-12-18T01:50:36;7.70;99.90
44271;DHT22;29963;44.594;11.368;2022-12-18T01:53:13;7.70;99.90
44271;DHT22;29963;44.594;11.368;2022-12-18T01:55:43;7.70;99.90
44271;DHT22;29963;44.594;11.368;2022-12-18T01:58:17;7.70;99.90
44271;DHT22;29963;44.594;11.368;2022-12-18T02:00:43;7.60;99.90
44271;DHT22;29963;44.594;11.368;2022-12-18T02:03:09;7.60;99.90
44271;DHT22;29963;44.594;11.368;2022-12-18T02:05:40;7.60;99.90
44271;DHT22;29963;44.594;11.368;2022-12-18T02:10:45;7.50;99.90
44271;DHT22;29963;44.594;11.368;2022-12-18T02:18:32;7.50;99.90
44271;DHT22;29963;44.594;11.368;2022-12-18T02:26:34;7.50;99.90
44271;DHT22;29963;44.594;11.368;2022-12-18T02:29:15;7.50;99.90
44271;DHT22;29963;44.594;11.368;2022-12-18T02:31:53;7.40;99.90
44271;DHT22;29963;44.594;11.368;2022-12-18T02:34:22;7.40;99.90
44271;DHT22;29963;44.594;11.368;2022-12-18T02:36:50;7.40;99.90
44271;DHT22;29963;44.594;11.368;2022-12-18T02:39:17;7.50;99.90
44271;DHT22;29963;44.594;11.368;2022-12-18T02:41:43;7.40;99.90
44271;DHT22;29963;44.594;11.368;2022-12-18T02:44:11;7.40;99.90
44271;DHT22;29963;44.594;11.368;2022-12-18T02:46:40;7.40;99.90
44271;DHT22;29963;44.594;11.368;2022-12-18T02:49:16;7.40;99.90
44271;DHT22;29963;44.594;11.368;2022-12-18T02:51:52;7.50;99.90
44271;DHT22;29963;44.594;11.368;2022-12-18T02:56:57;7.40;99.90
44271;DHT22;29963;44.594;11.368;2022-12-18T02:59:46;7.30;99.90
44271;DHT22;29963;44.594;11.368;2022-12-18T03:02:22;7.30;99.90
44271;DHT22;29963;44.594;11.368;2022-12-18T03:05:10;7.30;99.90
44271;DHT22;29963;44.594;11.368;2022-12-18T03:07:48;7.30;99.90
44271;DHT22;29963;44.594;11.368;2022-12-18T03:10:19;7.30;99.90
44271;DHT22;29963;44.594;11.368;2022-12-18T03:12:54;7.20;99.90
44271;DHT22;29963;44.594;11.368;2022-12-18T03:15:29;7.30;99.90
44271;DHT22;29963;44.594;11.368;2022-12-18T03:17:59;7.30;99.90
44271;DHT22;29963;44.594;11.368;2022-12-18T03:20:31;7.30;99.90
44271;DHT22;29963;44.594;11.368;2022-12-18T03:23:15;7.30;99.90
44271;DHT22;29963;44.594;11.368;2022-12-18T03:25:44;7.20;99.90
44271;DHT22;29963;44.594;11.368;2022-12-18T03:28:14;7.20;99.90
44271;DHT22;29963;44.594;11.368;2022-12-18T03:30:44;7.10;99.90
44271;DHT22;29963;44.594;11.368;2022-12-18T03:33:15;7.20;99.90
44271;DHT22;29963;44.594;11.368;2022-12-18T03:35:45;7.20;99.90
44271;DHT22;29963;44.594;11.368;2022-12-18T03:38:11;7.10;99.90
44271;DHT22;29963;44.594;11.368;2022-12-18T03:41:06;7.10;99.90
44271;DHT22;29963;44.594;11.368;2022-12-18T03:43:51;7.00;99.90
44271;DHT22;29963;44.594;11.368;2022-12-18T03:46:27;7.00;99.90
44271;DHT22;29963;44.594;11.368;2022-12-18T03:49:08;7.00;99.90
44271;DHT22;29963;44.594;11.368;2022-12-18T03:51:52;7.00;99.90
44271;DHT22;29963;44.594;11.368;2022-12-18T03:54:18;7.00;99.90
44271;DHT22;29963;44.594;11.368;2022-12-18T03:56:57;7.00;99.90
44271;DHT22;29963;44.594;11.368;2022-12-18T03:59:27;7.00;99.90
44271;DHT22;29963;44.594;11.368;2022-12-18T04:01:54;7.00;99.90
44271;DHT22;29963;44.594;11.368;2022-12-18T04:04:24;7.00;99.90
44271;DHT22;29963;44.594;11.368;2022-12-18T04:06:51;7.00;99.90
44271;DHT22;29963;44.594;11.368;2022-12-18T04:09:18;7.10;99.90
44271;DHT22;29963;44.594;11.368;2022-12-18T04:11:46;7.10;99.90
44271;DHT22;29963;44.594;11.368;2022-12-18T04:14:11;7.10;99.90
44271;DHT22;29963;44.594;11.368;2022-12-18T04:16:37;7.10;99.90
44271;DHT22;29963;44.594;11.368;2022-12-18T04:19:03;7.10;99.90
44271;DHT22;29963;44.594;11.368;2022-12-18T04:21:29;7.20;99.90
44271;DHT22;29963;44.594;11.368;2022-12-18T04:23:55;7.10;99.90
44271;DHT22;29963;44.594;11.368;2022-12-18T04:26:21;7.10;99.90
44271;DHT22;29963;44.594;11.368;2022-12-18T04:28:46;7.00;99.90
44271;DHT22;29963;44.594;11.368;2022-12-18T04:31:12;7.00;99.90
44271;DHT22;29963;44.594;11.368;2022-12-18T04:33:38;7.00;99.90
44271;DHT22;29963;44.594;11.368;2022-12-18T04:36:04;7.00;99.90
44271;DHT22;29963;44.594;11.368;2022-12-18T04:38:30;7.00;99.90
44271;DHT22;29963;44.594;11.368;2022-12-18T04:40:56;7.00;99.90
44271;DHT22;29963;44.594;11.368;2022-12-18T04:43:21;7.00;99.90
44271;DHT22;29963;44.594;11.368;2022-12-18T04:45:47;7.00;99.90
44271;DHT22;29963;44.594;11.368;2022-12-18T04:48:13;7.00;99.90
44271;DHT22;29963;44.594;11.368;2022-12-18T04:50:38;7.00;99.90
44271;DHT22;29963;44.594;11.368;2022-12-18T04:53:04;7.00;99.90
44271;DHT22;29963;44.594;11.368;2022-12-18T04:55:30;7.00;99.90
44271;DHT22;29963;44.594;11.368;2022-12-18T04:57:55;7.00;99.90
44271;DHT22;29963;44.594;11.368;2022-12-18T05:00:21;7.00;99.90
44271;DHT22;29963;44.594;11.368;2022-12-18T05:02:47;6.90;99.90
44271;DHT22;29963;44.594;11.368;2022-12-18T05:05:13;6.90;99.90
44271;DHT22;29963;44.594;11.368;2022-12-18T05:07:39;6.90;99.90
44271;DHT22;29963;44.594;11.368;2022-12-18T05:10:05;6.90;99.90
44271;DHT22;29963;44.594;11.368;2022-12-18T05:12:31;7.00;99.90
44271;DHT22;29963;44.594;11.368;2022-12-18T05:14:57;6.90;99.90
44271;DHT22;29963;44.594;11.368;2022-12-18T05:17:23;6.90;99.90
44271;DHT22;29963;44.594;11.368;2022-12-18T05:19:48;6.90;99.90
44271;DHT22;29963;44.594;11.368;2022-12-18T05:22:15;6.90;99.90
44271;DHT22;29963;44.594;11.368;2022-12-18T05:24:41;6.90;99.90
44271;DHT22;29963;44.594;11.368;2022-12-18T05:27:09;6.90;99.90
44271;DHT22;29963;44.594;11.368;2022-12-18T05:29:35;6.90;99.90
44271;DHT22;29963;44.594;11.368;2022-12-18T05:32:00;7.00;99.90
44271;DHT22;29963;44.594;11.368;2022-12-18T05:34:26;7.00;99.90
44271;DHT22;29963;44.594;11.368;2022-12-18T05:36:52;7.00;99.90
44271;DHT22;29963;44.594;11.368;2022-12-18T05:39:17;7.10;99.90
44271;DHT22;29963;44.594;11.368;2022-12-18T05:41:43;7.00;99.90
44271;DHT22;29963;44.594;11.368;2022-12-18T05:44:08;7.00;99.90
44271;DHT22;29963;44.594;11.368;2022-12-18T05:46:34;7.00;99.90
44271;DHT22;29963;44.594;11.368;2022-12-18T05:49:00;6.90;99.90
44271;DHT22;29963;44.594;11.368;2022-12-18T05:51:26;6.80;99.90
44271;DHT22;29963;44.594;11.368;2022-12-18T05:53:52;6.70;99.90
44271;DHT22;29963;44.594;11.368;2022-12-18T05:56:20;6.70;99.90
44271;DHT22;29963;44.594;11.368;2022-12-18T05:58:46;6.70;99.90
44271;DHT22;29963;44.594;11.368;2022-12-18T06:01:15;6.70;99.90
44271;DHT22;29963;44.594;11.368;2022-12-18T06:03:42;6.70;99.90
44271;DHT22;29963;44.594;11.368;2022-12-18T06:06:22;6.70;99.90
44271;DHT22;29963;44.594;11.368;2022-12-18T06:08:49;6.80;99.90
44271;DHT22;29963;44.594;11.368;2022-12-18T06:11:18;6.80;99.90
44271;DHT22;29963;44.594;11.368;2022-12-18T06:13:44;6.80;99.90
44271;DHT22;29963;44.594;11.368;2022-12-18T06:16:09;6.80;99.90
44271;DHT22;29963;44.594;11.368;2022-12-18T06:18:35;6.80;99.90
44271;DHT22;29963;44.594;11.368;2022-12-18T06:21:04;6.70;99.90
44271;DHT22;29963;44.594;11.368;2022-12-18T06:23:30;6.70;99.90
44271;DHT22;29963;44.594;11.368;2022-12-18T06:25:56;6.70;99.90
44271;DHT22;29963;44.594;11.368;2022-12-18T06:28:24;6.70;99.90
44271;DHT22;29963;44.594;11.368;2022-12-18T06:30:50;6.70;99.90
44271;DHT22;29963;44.594;11.368;2022-12-18T06:33:16;6.70;99.90
44271;DHT22;29963;44.594;11.368;2022-12-18T06:35:41;6.70;99.90
44271;DHT22;29963;44.594;11.368;2022-12-18T06:38:07;6.70;99.90
44271;DHT22;29963;44.594;11.368;2022-12-18T06:40:33;6.70;99.90
44271;DHT22;29963;44.594;11.368;2022-12-18T06:42:59;6.70;99.90
44271;DHT22;29963;44.594;11.368;2022-12-18T06:45:24;6.70;99.90
44271;DHT22;29963;44.594;11.368;2022-12-18T06:47:50;6.70;99.90
44271;DHT22;29963;44.594;11.368;2022-12-18T06:50:16;6.70;99.90
44271;DHT22;29963;44.594;11.368;2022-12-18T06:52:42;6.70;99.90
44271;DHT22;29963;44.594;11.368;2022-12-18T06:55:10;6.80;99.90
44271;DHT22;29963;44.594;11.368;2022-12-18T06:57:36;6.80;99.90
44271;DHT22;29963;44.594;11.368;2022-12-18T07:00:04;6.70;99.90
44271;DHT22;29963;44.594;11.368;2022-12-18T07:02:30;6.60;99.90
44271;DHT22;29963;44.594;11.368;2022-12-18T07:04:56;6.50;99.90
44271;DHT22;29963;44.594;11.368;2022-12-18T07:07:22;6.50;99.90
44271;DHT22;29963;44.594;11.368;2022-12-18T07:09:49;6.50;99.90
44271;DHT22;29963;44.594;11.368;2022-12-18T07:12:15;6.40;99.90
44271;DHT22;29963;44.594;11.368;2022-12-18T07:14:41;6.40;99.90
44271;DHT22;29963;44.594;11.368;2022-12-18T07:17:07;6.40;99.90
44271;DHT22;29963;44.594;11.368;2022-12-18T07:19:33;6.50;99.90
44271;DHT22;29963;44.594;11.368;2022-12-18T07:21:59;6.50;99.90
44271;DHT22;29963;44.594;11.368;2022-12-18T07:24:25;6.60;99.90
44271;DHT22;29963;44.594;11.368;2022-12-18T07:26:50;6.60;99.90
44271;DHT22;29963;44.594;11.368;2022-12-18T07:29:16;6.60;99.90
44271;DHT22;29963;44.594;11.368;2022-12-18T07:31:42;6.70;99.90
44271;DHT22;29963;44.594;11.368;2022-12-18T07:34:14;6.70;99.90
44271;DHT22;29963;44.594;11.368;2022-12-18T07:36:40;6.80;99.90
44271;DHT22;29963;44.594;11.368;2022-12-18T07:39:06;6.80;99.90
44271;DHT22;29963;44.594;11.368;2022-12-18T07:41:32;6.90;99.90
44271;DHT22;29963;44.594;11.368;2022-12-18T07:43:57;7.00;99.90
44271;DHT22;29963;44.594;11.368;2022-12-18T07:46:23;7.00;99.90
44271;DHT22;29963;44.594;11.368;2022-12-18T07:48:49;7.00;99.90
44271;DHT22;29963;44.594;11.368;2022-12-18T07:51:15;7.00;99.90
44271;DHT22;29963;44.594;11.368;2022-12-18T07:53:41;7.10;99.90
44271;DHT22;29963;44.594;11.368;2022-12-18T07:56:09;7.10;99.90
44271;DHT22;29963;44.594;11.368;2022-12-18T07:58:35;7.20;99.90
44271;DHT22;29963;44.594;11.368;2022-12-18T08:01:11;7.30;99.90
44271;DHT22;29963;44.594;11.368;2022-12-18T08:03:38;7.20;99.90
44271;DHT22;29963;44.594;11.368;2022-12-18T08:06:06;7.20;99.90
44271;DHT22;29963;44.594;11.368;2022-12-18T08:08:33;7.20;99.90
44271;DHT22;29963;44.594;11.368;2022-12-18T08:10:59;7.20;99.90
44271;DHT22;29963;44.594;11.368;2022-12-18T08:13:25;7.20;99.90
44271;DHT22;29963;44.594;11.368;2022-12-18T08:16:02;7.20;99.90
44271;DHT22;29963;44.594;11.368;2022-12-18T08:18:28;7.20;99.90
44271;DHT22;29963;44.594;11.368;2022-12-18T08:20:54;7.30;99.90
44271;DHT22;29963;44.594;11.368;2022-12-18T08:23:20;7.40;99.90
44271;DHT22;29963;44.594;11.368;2022-12-18T08:25:49;7.40;99.90
44271;DHT22;29963;44.594;11.368;2022-12-18T08:28:16;7.40;99.90
44271;DHT22;29963;44.594;11.368;2022-12-18T08:30:42;7.50;99.90
44271;DHT22;29963;44.594;11.368;2022-12-18T08:33:08;7.60;99.90
44271;DHT22;29963;44.594;11.368;2022-12-18T08:35:37;7.60;99.90
44271;DHT22;29963;44.594;11.368;2022-12-18T08:38:03;7.60;99.90
44271;DHT22;29963;44.594;11.368;2022-12-18T08:40:29;7.60;99.90
44271;DHT22;29963;44.594;11.368;2022-12-18T08:42:54;7.60;99.90
44271;DHT22;29963;44.594;11.368;2022-12-18T08:45:39;7.70;99.90
44271;DHT22;29963;44.594;11.368;2022-12-18T08:48:05;7.80;99.90
44271;DHT22;29963;44.594;11.368;2022-12-18T08:50:30;7.90;99.90
44271;DHT22;29963;44.594;11.368;2022-12-18T08:52:56;8.00;99.90
44271;DHT22;29963;44.594;11.368;2022-12-18T08:55:22;8.00;99.90
44271;DHT22;29963;44.594;11.368;2022-12-18T08:57:50;8.00;99.90
44271;DHT22;29963;44.594;11.368;2022-12-18T09:00:16;8.20;99.90
44271;DHT22;29963;44.594;11.368;2022-12-18T09:02:42;8.20;99.90
44271;DHT22;29963;44.594;11.368;2022-12-18T09:05:07;8.30;99.90
44271;DHT22;29963;44.594;11.368;2022-12-18T09:07:33;8.30;99.90
44271;DHT22;29963;44.594;11.368;2022-12-18T09:09:59;8.30;99.90
44271;DHT22;29963;44.594;11.368;2022-12-18T09:12:34;8.30;99.90
44271;DHT22;29963;44.594;11.368;2022-12-18T09:15:00;8.30;99.90
44271;DHT22;29963;44.594;11.368;2022-12-18T09:17:26;8.30;99.90
44271;DHT22;29963;44.594;11.368;2022-12-18T09:19:52;8.30;99.90
44271;DHT22;29963;44.594;11.368;2022-12-18T09:22:17;8.20;99.90
44271;DHT22;29963;44.594;11.368;2022-12-18T09:24:43;8.10;99.90
44271;DHT22;29963;44.594;11.368;2022-12-18T09:27:09;8.10;99.90
44271;DHT22;29963;44.594;11.368;2022-12-18T09:29:34;8.10;99.90
44271;DHT22;29963;44.594;11.368;2022-12-18T09:32:00;8.10;99.90
44271;DHT22;29963;44.594;11.368;2022-12-18T09:34:26;8.20;99.90
44271;DHT22;29963;44.594;11.368;2022-12-18T09:36:51;8.20;99.90
44271;DHT22;29963;44.594;11.368;2022-12-18T09:39:17;8.20;99.90
44271;DHT22;29963;44.594;11.368;2022-12-18T09:41:54;8.30;99.90
44271;DHT22;29963;44.594;11.368;2022-12-18T09:44:31;8.30;99.90
44271;DHT22;29963;44.594;11.368;2022-12-18T09:47:33;8.30;99.90
44271;DHT22;29963;44.594;11.368;2022-12-18T09:50:04;8.40;99.90
44271;DHT22;29963;44.594;11.368;2022-12-18T09:52:34;8.40;99.90
44271;DHT22;29963;44.594;11.368;2022-12-18T09:55:05;8.40;99.90
44271;DHT22;29963;44.594;11.368;2022-12-18T09:57:40;8.40;99.90
44271;DHT22;29963;44.594;11.368;2022-12-18T10:00:20;8.40;99.90
44271;DHT22;29963;44.594;11.368;2022-12-18T10:02:47;8.40;99.90
44271;DHT22;29963;44.594;11.368;2022-12-18T10:05:56;8.50;99.90
44271;DHT22;29963;44.594;11.368;2022-12-18T10:08:29;8.60;99.90
44271;DHT22;29963;44.594;11.368;2022-12-18T10:11:43;8.60;99.90
44271;DHT22;29963;44.594;11.368;2022-12-18T10:20:17;8.80;99.90
44271;DHT22;29963;44.594;11.368;2022-12-18T10:25:31;8.80;99.90
44271;DHT22;29963;44.594;11.368;2022-12-18T10:28:10;8.80;99.90
44271;DHT22;29963;44.594;11.368;2022-12-18T10:30:39;8.80;99.90
44271;DHT22;29963;44.594;11.368;2022-12-18T10:33:05;8.90;99.90
44271;DHT22;29963;44.594;11.368;2022-12-18T10:35:32;8.90;99.90
44271;DHT22;29963;44.594;11.368;2022-12-18T10:38:21;9.00;99.90
44271;DHT22;29963;44.594;11.368;2022-12-18T10:43:37;9.00;99.90
44271;DHT22;29963;44.594;11.368;2022-12-18T10:48:55;9.00;99.90
44271;DHT22;29963;44.594;11.368;2022-12-18T10:51:32;9.00;99.90
44271;DHT22;29963;44.594;11.368;2022-12-18T10:56:29;8.90;99.90
44271;DHT22;29963;44.594;11.368;2022-12-18T10:58:58;8.80;99.90
44271;DHT22;29963;44.594;11.368;2022-12-18T11:01:24;8.80;99.90
44271;DHT22;29963;44.594;11.368;2022-12-18T11:06:16;8.70;99.90
44271;DHT22;29963;44.594;11.368;2022-12-18T11:08:44;8.60;99.90
44271;DHT22;29963;44.594;11.368;2022-12-18T11:11:22;8.70;99.90
44271;DHT22;29963;44.594;11.368;2022-12-18T11:14:01;8.70;99.90
44271;DHT22;29963;44.594;11.368;2022-12-18T11:16:30;8.80;99.90
44271;DHT22;29963;44.594;11.368;2022-12-18T11:21:41;8.90;99.90
44271;DHT22;29963;44.594;11.368;2022-12-18T11:24:32;9.00;99.90
44271;DHT22;29963;44.594;11.368;2022-12-18T11:27:03;9.10;99.90
44271;DHT22;29963;44.594;11.368;2022-12-18T11:29:37;9.10;99.90
44271;DHT22;29963;44.594;11.368;2022-12-18T11:32:46;9.20;99.90
44271;DHT22;29963;44.594;11.368;2022-12-18T11:35:33;9.30;99.90
44271;DHT22;29963;44.594;11.368;2022-12-18T11:38:24;9.30;99.90
44271;DHT22;29963;44.594;11.368;2022-12-18T11:43:40;9.30;99.90
44271;DHT22;29963;44.594;11.368;2022-12-18T11:46:34;9.30;99.90
44271;DHT22;29963;44.594;11.368;2022-12-18T11:49:22;9.30;99.90
44271;DHT22;29963;44.594;11.368;2022-12-18T11:52:38;9.40;99.90
44271;DHT22;29963;44.594;11.368;2022-12-18T11:54:37;9.30;99.90
44271;DHT22;29963;44.594;11.368;2022-12-18T11:57:55;9.30;99.90
44271;DHT22;29963;44.594;11.368;2022-12-18T12:08:35;9.20;99.90
44271;DHT22;29963;44.594;11.368;2022-12-18T12:11:14;9.30;99.90
44271;DHT22;29963;44.594;11.368;2022-12-18T12:14:17;9.30;99.90
44271;DHT22;29963;44.594;11.368;2022-12-18T12:16:56;9.30;99.90
44271;DHT22;29963;44.594;11.368;2022-12-18T12:25:21;9.40;99.90
44271;DHT22;29963;44.594;11.368;2022-12-18T12:37:14;9.50;99.90
44271;DHT22;29963;44.594;11.368;2022-12-18T12:39:23;9.50;99.90
44271;DHT22;29963;44.594;11.368;2022-12-18T12:41:54;9.50;99.90
44271;DHT22;29963;44.594;11.368;2022-12-18T12:44:43;9.70;99.90
44271;DHT22;29963;44.594;11.368;2022-12-18T12:47:16;9.80;99.90
44271;DHT22;29963;44.594;11.368;2022-12-18T12:49:43;9.80;99.90
44271;DHT22;29963;44.594;11.368;2022-12-18T12:52:16;9.90;99.90
44271;DHT22;29963;44.594;11.368;2022-12-18T12:54:43;9.90;99.90
44271;DHT22;29963;44.594;11.368;2022-12-18T12:57:45;9.90;99.90
44271;DHT22;29963;44.594;11.368;2022-12-18T13:02:42;10.00;99.90
44271;DHT22;29963;44.594;11.368;2022-12-18T13:05:21;10.10;99.90
44271;DHT22;29963;44.594;11.368;2022-12-18T13:08:11;10.20;99.90
44271;DHT22;29963;44.594;11.368;2022-12-18T13:13:35;10.30;99.90
44271;DHT22;29963;44.594;11.368;2022-12-18T13:16:07;10.30;99.90
44271;DHT22;29963;44.594;11.368;2022-12-18T13:18:34;10.40;99.90
44271;DHT22;29963;44.594;11.368;2022-12-18T13:23:26;10.50;99.90
44271;DHT22;29963;44.594;11.368;2022-12-18T13:25:54;10.70;99.90
44271;DHT22;29963;44.594;11.368;2022-12-18T13:33:43;10.80;99.90
44271;DHT22;29963;44.594;11.368;2022-12-18T13:39:20;11.10;99.90
44271;DHT22;29963;44.594;11.368;2022-12-18T13:41:49;11.10;99.90
44271;DHT22;29963;44.594;11.368;2022-12-18T13:47:04;11.10;99.90
44271;DHT22;29963;44.594;11.368;2022-12-18T13:49:40;11.30;99.90
44271;DHT22;29963;44.594;11.368;2022-12-18T13:52:21;11.70;99.90
44271;DHT22;29963;44.594;11.368;2022-12-18T13:54:53;12.30;99.90
44271;DHT22;29963;44.594;11.368;2022-12-18T13:57:27;13.00;99.90
44271;DHT22;29963;44.594;11.368;2022-12-18T13:59:53;13.70;99.90
44271;DHT22;29963;44.594;11.368;2022-12-18T14:02:29;14.20;99.90
44271;DHT22;29963;44.594;11.368;2022-12-18T14:04:55;14.30;99.90
44271;DHT22;29963;44.594;11.368;2022-12-18T14:07:23;14.30;99.90
44271;DHT22;29963;44.594;11.368;2022-12-18T14:09:59;14.20;99.90
44271;DHT22;29963;44.594;11.368;2022-12-18T14:12:30;14.10;99.90
44271;DHT22;29963;44.594;11.368;2022-12-18T14:20:43;14.00;99.90
44271;DHT22;29963;44.594;11.368;2022-12-18T14:23:45;14.00;99.90
44271;DHT22;29963;44.594;11.368;2022-12-18T14:28:45;14.00;99.90
44271;DHT22;29963;44.594;11.368;2022-12-18T14:31:22;13.90;99.90
44271;DHT22;29963;44.594;11.368;2022-12-18T14:33:48;14.00;99.90
44271;DHT22;29963;44.594;11.368;2022-12-18T14:36:20;14.00;99.90
44271;DHT22;29963;44.594;11.368;2022-12-18T14:38:53;14.10;99.90
44271;DHT22;29963;44.594;11.368;2022-12-18T14:41:23;14.20;99.90
44271;DHT22;29963;44.594;11.368;2022-12-18T14:43:50;14.30;99.90
44271;DHT22;29963;44.594;11.368;2022-12-18T14:51:31;14.40;99.90
44271;DHT22;29963;44.594;11.368;2022-12-18T14:54:00;14.30;99.90
44271;DHT22;29963;44.594;11.368;2022-12-18T14:56:31;14.10;99.90
44271;DHT22;29963;44.594;11.368;2022-12-18T14:59:03;13.90;99.90
44271;DHT22;29963;44.594;11.368;2022-12-18T15:01:36;13.80;99.90
44271;DHT22;29963;44.594;11.368;2022-12-18T15:04:03;13.70;99.90
44271;DHT22;29963;44.594;11.368;2022-12-18T15:06:35;13.40;99.90
44271;DHT22;29963;44.594;11.368;2022-12-18T15:09:05;13.20;99.90
44271;DHT22;29963;44.594;11.368;2022-12-18T15:11:44;12.90;99.90
44271;DHT22;29963;44.594;11.368;2022-12-18T15:14:30;12.60;99.90
44271;DHT22;29963;44.594;11.368;2022-12-18T15:16:58;12.20;99.90
44271;DHT22;29963;44.594;11.368;2022-12-18T15:19:41;11.90;99.90
44271;DHT22;29963;44.594;11.368;2022-12-18T15:22:26;11.70;99.90
44271;DHT22;29963;44.594;11.368;2022-12-18T15:24:53;11.50;99.90
44271;DHT22;29963;44.594;11.368;2022-12-18T15:32:38;11.10;99.90
44271;DHT22;29963;44.594;11.368;2022-12-18T15:35:14;11.00;99.90
44271;DHT22;29963;44.594;11.368;2022-12-18T15:37:41;10.90;99.90
44271;DHT22;29963;44.594;11.368;2022-12-18T15:40:12;10.80;99.90
44271;DHT22;29963;44.594;11.368;2022-12-18T15:42:37;10.60;99.90
44271;DHT22;29963;44.594;11.368;2022-12-18T15:45:21;10.60;99.90
44271;DHT22;29963;44.594;11.368;2022-12-18T15:47:47;10.50;99.90
44271;DHT22;29963;44.594;11.368;2022-12-18T15:50:13;10.30;99.90
44271;DHT22;29963;44.594;11.368;2022-12-18T15:52:46;10.20;99.90
44271;DHT22;29963;44.594;11.368;2022-12-18T15:55:18;10.10;99.90
44271;DHT22;29963;44.594;11.368;2022-12-18T15:58:04;10.00;99.90
44271;DHT22;29963;44.594;11.368;2022-12-18T16:00:30;10.00;99.90
44271;DHT22;29963;44.594;11.368;2022-12-18T16:02:56;9.90;99.90
44271;DHT22;29963;44.594;11.368;2022-12-18T16:05:23;9.70;99.90
44271;DHT22;29963;44.594;11.368;2022-12-18T16:07:48;9.70;99.90
44271;DHT22;29963;44.594;11.368;2022-12-18T16:10:14;9.60;99.90
44271;DHT22;29963;44.594;11.368;2022-12-18T16:12:41;9.60;99.90
44271;DHT22;29963;44.594;11.368;2022-12-18T16:15:09;9.50;99.90
44271;DHT22;29963;44.594;11.368;2022-12-18T16:17:35;9.40;99.90
44271;DHT22;29963;44.594;11.368;2022-12-18T16:20:01;9.40;99.90
44271;DHT22;29963;44.594;11.368;2022-12-18T16:22:29;9.30;99.90
44271;DHT22;29963;44.594;11.368;2022-12-18T16:24:56;9.30;99.90
44271;DHT22;29963;44.594;11.368;2022-12-18T16:27:23;9.20;99.90
44271;DHT22;29963;44.594;11.368;2022-12-18T16:29:50;9.20;99.90
44271;DHT22;29963;44.594;11.368;2022-12-18T16:32:18;9.20;99.90
44271;DHT22;29963;44.594;11.368;2022-12-18T16:34:44;9.10;99.90
44271;DHT22;29963;44.594;11.368;2022-12-18T16:37:12;9.00;99.90
44271;DHT22;29963;44.594;11.368;2022-12-18T16:39:38;9.00;99.90
44271;DHT22;29963;44.594;11.368;2022-12-18T16:42:16;8.90;99.90
44271;DHT22;29963;44.594;11.368;2022-12-18T16:44:45;8.80;99.90
44271;DHT22;29963;44.594;11.368;2022-12-18T16:47:11;8.80;99.90
44271;DHT22;29963;44.594;11.368;2022-12-18T16:49:37;8.80;99.90
44271;DHT22;29963;44.594;11.368;2022-12-18T16:52:04;8.80;99.90
44271;DHT22;29963;44.594;11.368;2022-12-18T16:54:30;8.70;99.90
44271;DHT22;29963;44.594;11.368;2022-12-18T16:56:58;8.70;99.90
44271;DHT22;29963;44.594;11.368;2022-12-18T16:59:25;8.60;99.90
44271;DHT22;29963;44.594;11.368;2022-12-18T17:01:51;8.60;99.90
44271;DHT22;29963;44.594;11.368;2022-12-18T17:04:17;8.40;99.90
44271;DHT22;29963;44.594;11.368;2022-12-18T17:06:44;8.40;99.90
44271;DHT22;29963;44.594;11.368;2022-12-18T17:09:14;8.40;99.90
44271;DHT22;29963;44.594;11.368;2022-12-18T17:11:41;8.30;99.90
44271;DHT22;29963;44.594;11.368;2022-12-18T17:14:18;8.30;99.90
44271;DHT22;29963;44.594;11.368;2022-12-18T17:16:45;8.20;99.90
44271;DHT22;29963;44.594;11.368;2022-12-18T17:19:11;8.20;99.90
44271;DHT22;29963;44.594;11.368;2022-12-18T17:21:37;8.10;99.90
44271;DHT22;29963;44.594;11.368;2022-12-18T17:24:03;8.10;99.90
44271;DHT22;29963;44.594;11.368;2022-12-18T17:26:29;8.00;99.90
44271;DHT22;29963;44.594;11.368;2022-12-18T17:28:56;7.90;99.90
44271;DHT22;29963;44.594;11.368;2022-12-18T17:31:24;8.00;99.90